createdAt,value
2022-11-15T00:01:27.695Z,64.22
2022-11-15T00:02:48.167Z,62.98
2022-11-15T00:04:08.845Z,62.26
2022-11-15T00:05:29.284Z,61.26
2022-11-15T00:06:49.740Z,60.65
2022-11-15T00:08:10.875Z,60.02
2022-11-15T00:09:31.475Z,59.45
2022-11-15T00:11:00.273Z,58.42
2022-11-15T00:12:20.922Z,58.28
2022-11-15T00:13:41.823Z,59.58
2022-11-15T00:15:02.214Z,61.26
2022-11-15T00:16:23.049Z,62.83
2022-11-15T00:17:43.244Z,65.14
2022-11-15T00:19:03.778Z,65.57
2022-11-15T00:20:24.236Z,64.63
2022-11-15T00:21:44.566Z,63.31
2022-11-15T00:23:05.875Z,62.13
2022-11-15T00:24:26.265Z,61.16
2022-11-15T00:25:46.561Z,60.33
2022-11-15T00:27:08.149Z,59.62
2022-11-15T00:28:28.741Z,59.06
2022-11-15T00:29:49.106Z,58.05
2022-11-15T00:31:14.488Z,58.83
2022-11-15T00:32:35.027Z,60.63
2022-11-15T00:33:55.189Z,61.93
2022-11-15T00:35:15.759Z,62.72
2022-11-15T00:36:35.913Z,64.78
2022-11-15T00:37:56.235Z,66.33
2022-11-15T00:39:16.597Z,65.87
2022-11-15T00:40:37.142Z,64.87
2022-11-15T00:41:57.676Z,63.61
2022-11-15T00:43:18.159Z,62.57
2022-11-15T00:44:38.655Z,61.63
2022-11-15T00:45:59.384Z,60.93
2022-11-15T00:47:19.487Z,60.38
2022-11-15T00:48:39.689Z,59.83
2022-11-15T00:50:00.049Z,59.40
2022-11-15T00:51:20.669Z,58.19
2022-11-15T00:52:41.298Z,58.06
2022-11-15T00:54:01.826Z,59.07
2022-11-15T00:55:22.094Z,60.43
2022-11-15T00:56:42.603Z,62.54
2022-11-15T00:58:03.178Z,64.91
2022-11-15T00:59:24.134Z,65.76
2022-11-15T01:00:44.561Z,65.24
2022-11-15T01:02:05.052Z,64.05
2022-11-15T01:03:25.706Z,62.89
2022-11-15T01:04:46.223Z,62.03
2022-11-15T01:06:07.712Z,61.33
2022-11-15T01:07:28.235Z,60.66
2022-11-15T01:08:48.890Z,60.02
2022-11-15T01:10:10.139Z,59.48
2022-11-15T01:11:30.279Z,58.49
2022-11-15T01:12:50.936Z,58.17
2022-11-15T01:14:12.252Z,59.45
2022-11-15T01:15:32.748Z,60.95
2022-11-15T01:16:53.293Z,62.44
2022-11-15T01:18:13.702Z,65.03
2022-11-15T01:19:34.256Z,66.33
2022-11-15T01:20:54.660Z,65.84
2022-11-15T01:22:15.266Z,64.78
2022-11-15T01:23:36.310Z,63.69
2022-11-15T01:24:56.903Z,62.63
2022-11-15T01:26:17.391Z,61.71
2022-11-15T01:27:37.846Z,60.89
2022-11-15T01:28:58.202Z,60.43
2022-11-15T01:30:18.675Z,59.97
2022-11-15T01:31:39.182Z,59.64
2022-11-15T01:32:59.526Z,58.76
2022-11-15T01:34:19.814Z,58.04
2022-11-15T01:35:41.364Z,58.86
2022-11-15T01:37:02.296Z,60.51
2022-11-15T01:38:23.643Z,61.63
2022-11-15T01:39:44.303Z,63.55
2022-11-15T01:41:05.260Z,65.89
2022-11-15T01:42:25.850Z,66.22
2022-11-15T01:43:50.118Z,65.24
2022-11-15T01:45:16.282Z,64.13
2022-11-15T01:46:39.589Z,62.97
2022-11-15T01:48:00.258Z,61.89
2022-11-15T01:49:23.526Z,61.31
2022-11-15T01:50:43.731Z,60.60
2022-11-15T01:52:10.025Z,60.06
2022-11-15T01:53:33.235Z,59.57
2022-11-15T01:55:02.840Z,58.75
2022-11-15T01:56:28.828Z,58.05
2022-11-15T01:57:56.135Z,59.16
2022-11-15T01:59:16.958Z,61.01
2022-11-15T02:00:37.543Z,63.00
2022-11-15T02:01:58.237Z,65.27
2022-11-15T02:03:18.924Z,65.63
2022-11-15T02:04:44.560Z,64.81
2022-11-15T02:06:06.536Z,63.55
2022-11-15T02:07:29.430Z,62.47
2022-11-15T02:08:51.796Z,61.61
2022-11-15T02:10:18.272Z,60.84
2022-11-15T02:11:38.853Z,60.14
2022-11-15T02:13:02.938Z,59.60
2022-11-15T02:14:28.796Z,59.13
2022-11-15T02:16:14.570Z,57.92
2022-11-15T02:17:37.686Z,58.86
2022-11-15T02:19:30.463Z,60.80
2022-11-15T02:21:28.097Z,63.07
2022-11-15T02:29:44.166Z,61.75
2022-11-15T02:31:16.107Z,60.95
2022-11-15T02:32:47.523Z,60.33
2022-11-15T02:34:36.355Z,59.79
2022-11-15T02:36:15.959Z,58.78
2022-11-15T02:37:52.192Z,58.61
2022-11-15T02:39:29.538Z,60.20
2022-11-15T02:41:09.622Z,62.03
2022-11-15T02:42:55.395Z,64.67
2022-11-15T02:44:27.874Z,65.23
2022-11-15T02:45:57.361Z,64.14
2022-11-15T02:47:19.670Z,62.90
2022-11-15T02:48:41.801Z,61.99
2022-11-15T02:50:11.927Z,61.08
2022-11-15T02:51:34.552Z,60.36
2022-11-15T02:53:25.138Z,59.82
2022-11-15T02:54:58.258Z,59.00
2022-11-15T02:56:18.843Z,58.13
2022-11-15T02:58:17.291Z,58.84
2022-11-15T03:00:08.997Z,61.38
2022-11-15T03:01:59.687Z,64.34
2022-11-15T03:04:02.771Z,65.78
2022-11-15T03:05:45.339Z,64.45
2022-11-15T03:07:19.976Z,63.03
2022-11-15T03:08:55.964Z,61.77
2022-11-15T03:10:31.789Z,61.02
2022-11-15T03:12:02.334Z,60.25
2022-11-15T03:13:39.139Z,59.61
2022-11-15T03:15:10.341Z,58.73
2022-11-15T03:17:00.752Z,58.32
2022-11-15T03:18:35.247Z,59.74
2022-11-15T03:20:00.044Z,62.01
2022-11-15T03:21:23.102Z,63.07
2022-11-15T03:22:47.918Z,65.57
2022-11-15T03:24:09.864Z,66.22
2022-11-15T03:25:35.660Z,65.38
2022-11-15T03:27:00.725Z,64.23
2022-11-15T03:28:32.903Z,62.91
2022-11-15T03:30:01.560Z,61.83
2022-11-15T03:31:50.020Z,61.04
2022-11-15T03:33:12.831Z,60.30
2022-11-15T03:34:53.244Z,59.76
2022-11-15T03:36:13.984Z,58.83
2022-11-15T03:37:50.337Z,58.13
2022-11-15T03:39:19.184Z,59.32
2022-11-15T03:40:43.827Z,61.04
2022-11-15T03:58:02.998Z,58.42
2022-11-15T03:59:23.628Z,59.96
2022-11-15T04:00:43.956Z,61.88
2022-11-15T04:02:04.321Z,64.12
2022-11-15T04:03:26.508Z,65.48
2022-11-15T04:11:24.010Z,60.21
2022-11-15T04:12:48.315Z,59.76
2022-11-15T04:14:08.775Z,59.03
2022-11-15T04:15:30.417Z,58.11
2022-11-15T04:16:50.769Z,58.85
2022-11-15T04:18:10.985Z,60.46
2022-11-15T04:26:17.451Z,64.25
2022-11-15T04:27:37.795Z,62.92
2022-11-15T04:29:16.931Z,62.03
2022-11-15T04:30:37.701Z,61.21
2022-11-15T04:31:58.001Z,60.50
2022-11-15T04:33:18.346Z,60.11
2022-11-15T04:34:39.491Z,59.56
2022-11-15T04:36:18.769Z,58.90
2022-11-15T04:37:39.635Z,58.31
2022-11-15T04:38:59.876Z,59.44
2022-11-15T04:40:20.101Z,61.02
2022-11-15T04:41:40.283Z,61.76
2022-11-15T04:43:03.908Z,64.13
2022-11-15T04:44:24.465Z,66.15
2022-11-15T04:45:44.964Z,65.86
2022-11-15T04:47:05.665Z,64.92
2022-11-15T04:48:26.109Z,63.66
2022-11-15T04:49:46.629Z,62.48
2022-11-15T04:51:07.149Z,61.69
2022-11-15T04:58:44.149Z,58.12
2022-11-15T05:00:09.727Z,59.00
2022-11-15T05:01:30.381Z,60.30
2022-11-15T05:03:09.738Z,61.92
2022-11-15T05:04:30.120Z,65.09
2022-11-15T05:05:50.622Z,65.85
2022-11-15T05:07:10.922Z,65.23
2022-11-15T05:08:31.583Z,64.15
2022-11-15T05:09:51.889Z,63.08
2022-11-15T05:11:12.698Z,62.02
2022-11-15T05:12:33.073Z,61.18
2022-11-15T05:13:53.813Z,60.68
2022-11-15T05:15:14.215Z,60.08
2022-11-15T05:16:34.434Z,59.78
2022-11-15T05:18:00.389Z,59.35
2022-11-15T05:19:20.775Z,58.31
2022-11-15T05:20:41.285Z,58.29
2022-11-15T05:22:01.602Z,59.90
2022-11-15T05:29:57.790Z,65.04
2022-11-15T05:31:18.232Z,63.95
2022-11-15T05:32:38.637Z,63.03
2022-11-15T05:34:02.434Z,62.16
2022-11-15T05:35:35.593Z,61.38
2022-11-15T05:36:56.175Z,61.12
2022-11-15T05:38:16.441Z,60.51
2022-11-15T05:39:37.014Z,60.16
2022-11-15T05:40:57.834Z,59.69
2022-11-15T05:42:18.896Z,59.08
2022-11-15T05:44:16.248Z,58.33
2022-11-15T05:45:37.702Z,59.76
2022-11-15T05:46:58.361Z,61.36
2022-11-15T05:48:19.222Z,62.55
2022-11-15T05:49:45.368Z,64.81
2022-11-15T05:51:07.723Z,65.70
2022-11-15T05:52:34.725Z,65.44
2022-11-15T05:53:59.309Z,64.38
2022-11-15T05:55:19.898Z,63.09
2022-11-15T05:56:40.510Z,62.18
2022-11-15T05:58:02.117Z,61.39
2022-11-15T05:59:22.709Z,60.73
2022-11-15T06:00:44.279Z,60.22
2022-11-15T06:02:04.554Z,59.80
2022-11-15T06:03:24.978Z,59.52
2022-11-15T06:04:45.208Z,58.39
2022-11-15T06:06:05.446Z,58.18
2022-11-15T06:07:25.784Z,59.09
2022-11-15T06:08:46.453Z,60.86
2022-11-15T06:10:07.701Z,62.40
2022-11-15T06:11:27.963Z,64.85
2022-11-15T06:12:48.043Z,66.28
2022-11-15T06:14:08.090Z,66.01
2022-11-15T06:15:29.224Z,65.06
2022-11-15T06:16:49.449Z,63.93
2022-11-15T06:18:09.703Z,63.00
2022-11-15T06:19:33.995Z,62.04
2022-11-15T06:20:54.069Z,61.27
2022-11-15T06:22:14.534Z,60.62
2022-11-15T06:23:36.330Z,60.21
2022-11-15T06:25:00.207Z,59.73
2022-11-15T06:26:23.323Z,59.38
2022-11-15T06:27:43.952Z,58.44
2022-11-15T06:29:07.189Z,58.30
2022-11-15T06:30:28.673Z,59.26
2022-11-15T06:31:49.263Z,61.15
2022-11-15T06:33:09.907Z,63.18
2022-11-15T06:34:30.511Z,65.34
2022-11-15T06:35:51.278Z,65.56
2022-11-15T06:37:11.621Z,64.70
2022-11-15T06:38:32.178Z,63.57
2022-11-15T06:39:52.329Z,62.74
2022-11-15T06:41:14.935Z,61.77
2022-11-15T06:42:35.767Z,60.99
2022-11-15T06:43:56.009Z,60.49
2022-11-15T06:45:16.419Z,59.90
2022-11-15T06:46:36.706Z,59.63
2022-11-15T06:47:57.313Z,58.82
2022-11-15T06:49:17.891Z,58.06
2022-11-15T06:50:38.324Z,58.57
2022-11-15T06:51:58.741Z,60.82
2022-11-15T06:53:19.397Z,62.55
2022-11-15T06:54:39.691Z,64.93
2022-11-15T06:56:06.004Z,65.80
2022-11-15T06:57:26.493Z,65.10
2022-11-15T06:58:46.806Z,63.97
2022-11-15T07:00:07.920Z,62.99
2022-11-15T07:01:27.985Z,62.05
2022-11-15T07:02:49.005Z,61.33
2022-11-15T07:04:09.442Z,60.76
2022-11-15T07:05:30.635Z,60.33
2022-11-15T07:06:51.107Z,59.82
2022-11-15T07:08:11.630Z,59.43
2022-11-15T07:09:32.000Z,58.38
2022-11-15T07:10:52.914Z,58.47
2022-11-15T07:12:13.675Z,59.90
2022-11-15T07:13:36.539Z,61.44
2022-11-15T07:14:57.375Z,63.53
2022-11-15T07:16:17.713Z,65.54
2022-11-15T07:17:38.042Z,65.38
2022-11-15T07:18:58.768Z,64.36
2022-11-15T07:20:19.555Z,63.19
2022-11-15T07:21:40.157Z,62.12
2022-11-15T07:23:05.387Z,61.37
2022-11-15T07:24:26.200Z,60.68
2022-11-15T07:25:46.952Z,59.91
2022-11-15T07:27:07.752Z,59.45
2022-11-15T07:28:28.346Z,58.55
2022-11-15T07:29:48.850Z,58.49
2022-11-15T07:31:09.978Z,59.72
2022-11-15T07:32:30.624Z,61.47
2022-11-15T07:33:50.905Z,62.81
2022-11-15T07:35:11.006Z,65.27
2022-11-15T07:36:31.276Z,65.84
2022-11-15T07:38:00.551Z,65.27
2022-11-15T07:39:20.960Z,63.84
2022-11-15T07:40:41.732Z,62.85
2022-11-15T07:42:20.829Z,61.85
2022-11-15T07:43:41.197Z,60.87
2022-11-15T07:45:01.482Z,60.31
2022-11-15T07:46:22.066Z,59.82
2022-11-15T07:47:47.032Z,59.29
2022-11-15T07:49:07.695Z,58.18
2022-11-15T07:50:32.174Z,58.67
2022-11-15T07:51:52.802Z,60.27
2022-11-15T07:53:13.585Z,61.82
2022-11-15T07:54:34.483Z,63.91
2022-11-15T07:55:54.964Z,65.49
2022-11-15T07:57:15.276Z,65.20
2022-11-15T07:58:35.865Z,64.21
2022-11-15T07:59:56.077Z,62.91
2022-11-15T08:01:16.830Z,61.86
2022-11-15T08:02:37.287Z,60.78
2022-11-15T08:03:57.853Z,60.08
2022-11-15T08:05:18.037Z,59.56
2022-11-15T08:06:38.773Z,58.50
2022-11-15T08:07:59.590Z,58.10
2022-11-15T08:09:19.742Z,59.35
2022-11-15T08:10:40.916Z,61.09
2022-11-15T08:12:01.426Z,62.90
2022-11-15T08:13:22.505Z,65.15
2022-11-15T08:14:42.636Z,65.38
2022-11-15T08:16:06.337Z,64.29
2022-11-15T08:17:27.145Z,62.95
2022-11-15T08:18:47.992Z,61.83
2022-11-15T08:20:09.072Z,60.99
2022-11-15T08:21:29.352Z,60.11
2022-11-15T08:22:49.577Z,59.24
2022-11-15T08:24:11.797Z,58.19
2022-11-15T08:25:34.897Z,58.66
2022-11-15T08:26:55.251Z,59.37
2022-11-15T08:28:18.221Z,61.14
2022-11-15T08:29:38.714Z,62.87
2022-11-15T08:30:58.922Z,64.79
2022-11-15T08:32:19.557Z,65.06
2022-11-15T08:33:40.169Z,64.05
2022-11-15T08:35:00.666Z,62.75
2022-11-15T08:36:21.232Z,61.83
2022-11-15T08:37:41.415Z,60.86
2022-11-15T08:39:02.221Z,60.10
2022-11-15T08:40:23.019Z,59.46
2022-11-15T08:41:43.336Z,58.15
2022-11-15T08:43:04.054Z,57.65
2022-11-15T08:44:25.140Z,58.64
2022-11-15T08:45:45.986Z,60.40
2022-11-15T08:47:06.628Z,61.98
2022-11-15T08:48:27.151Z,63.63
2022-11-15T08:49:47.573Z,65.32
2022-11-15T08:51:07.927Z,65.23
2022-11-15T08:52:28.402Z,64.18
2022-11-15T08:53:49.056Z,63.02
2022-11-15T08:55:09.516Z,61.96
2022-11-15T08:56:29.651Z,61.10
2022-11-15T08:57:50.012Z,60.58
2022-11-15T08:59:10.175Z,59.71
2022-11-15T09:00:30.400Z,58.52
2022-11-15T09:01:50.888Z,57.95
2022-11-15T09:03:11.329Z,58.95
2022-11-15T09:04:32.411Z,60.48
2022-11-15T09:05:57.636Z,61.81
2022-11-15T09:07:18.152Z,64.24
2022-11-15T09:08:48.131Z,65.34
2022-11-15T09:10:09.395Z,64.89
2022-11-15T09:11:30.769Z,63.80
2022-11-15T09:12:51.417Z,62.69
2022-11-15T09:14:15.760Z,61.47
2022-11-15T09:15:36.172Z,60.62
2022-11-15T09:16:56.818Z,59.97
2022-11-15T09:18:16.912Z,59.22
2022-11-15T09:19:38.003Z,58.04
2022-11-15T09:21:00.124Z,58.49
2022-11-15T09:22:20.540Z,59.90
2022-11-15T09:23:41.017Z,61.46
2022-11-15T09:25:01.176Z,63.02
2022-11-15T09:26:21.657Z,64.57
2022-11-15T09:27:42.385Z,64.29
2022-11-15T09:29:02.983Z,63.01
2022-11-15T09:30:24.521Z,61.65
2022-11-15T09:31:44.952Z,60.46
2022-11-15T09:33:10.506Z,59.52
2022-11-15T09:34:30.597Z,58.19
2022-11-15T09:35:51.019Z,58.17
2022-11-15T09:37:11.564Z,59.25
2022-11-15T09:38:33.286Z,60.66
2022-11-15T09:39:53.864Z,62.15
2022-11-15T09:41:32.216Z,63.96
2022-11-15T09:43:11.162Z,64.55
2022-11-15T09:45:05.181Z,63.16
2022-11-15T09:46:58.853Z,61.23
2022-11-15T09:48:22.365Z,59.45
2022-11-15T09:50:01.722Z,57.60
2022-11-15T09:51:19.877Z,57.99
2022-11-15T09:52:22.912Z,58.65
2022-11-15T09:55:15.006Z,61.44
2022-11-15T09:56:30.489Z,62.40
2022-11-15T09:58:01.875Z,63.95
2022-11-15T09:59:38.333Z,64.95
2022-11-15T10:00:49.848Z,63.75
2022-11-15T10:02:24.502Z,62.56
2022-11-15T10:03:34.348Z,61.20
2022-11-15T10:04:40.556Z,60.03
2022-11-15T10:05:48.417Z,58.98
2022-11-15T10:07:22.270Z,57.77
2022-11-15T10:08:41.661Z,58.03
2022-11-15T10:09:55.631Z,58.59
2022-11-15T10:11:37.779Z,59.06
2022-11-15T10:12:46.466Z,61.23
2022-11-15T10:13:51.640Z,62.10
2022-11-15T10:15:05.768Z,62.38
2022-11-15T10:16:31.715Z,64.05
2022-11-15T10:18:07.042Z,65.64
2022-11-15T10:19:29.408Z,64.52
2022-11-15T10:20:58.013Z,63.27
2022-11-15T10:22:28.152Z,61.63
2022-11-15T10:23:32.805Z,60.19
2022-11-15T10:24:46.486Z,59.18
2022-11-15T10:25:48.736Z,57.29
2022-11-15T10:26:51.525Z,56.88
2022-11-15T10:28:16.071Z,57.44
2022-11-15T10:29:26.464Z,58.39
2022-11-15T10:30:36.518Z,59.63
2022-11-15T10:31:42.570Z,60.77
2022-11-15T10:32:46.913Z,61.07
2022-11-15T10:33:50.212Z,62.24
2022-11-15T10:34:52.393Z,63.93
2022-11-15T10:36:12.591Z,64.95
2022-11-15T10:37:14.408Z,64.43
2022-11-15T10:38:16.195Z,63.28
2022-11-15T10:39:17.965Z,62.20
2022-11-15T10:40:23.403Z,61.05
2022-11-15T10:41:28.454Z,60.07
2022-11-15T10:42:30.597Z,58.81
2022-11-15T10:43:32.386Z,57.20
2022-11-15T10:44:44.028Z,56.64
2022-11-15T10:45:47.474Z,57.13
2022-11-15T10:46:55.395Z,58.12
2022-11-15T10:48:22.718Z,59.33
2022-11-15T10:49:30.007Z,60.82
2022-11-15T10:50:33.645Z,61.40
2022-11-15T10:51:44.553Z,61.62
2022-11-15T10:52:48.752Z,62.19
2022-11-15T10:53:52.837Z,62.55
2022-11-15T10:55:22.492Z,63.78
2022-11-15T10:56:27.292Z,64.02
2022-11-15T10:57:37.521Z,62.72
2022-11-15T10:58:44.535Z,61.19
2022-11-15T10:59:50.629Z,59.73
2022-11-15T11:00:55.008Z,57.62
2022-11-15T11:01:58.160Z,56.18
2022-11-15T11:03:04.746Z,56.14
2022-11-15T11:04:09.428Z,56.59
2022-11-15T11:05:41.829Z,57.12
2022-11-15T11:06:56.441Z,58.00
2022-11-15T11:08:02.219Z,58.61
2022-11-15T11:09:06.969Z,59.15
2022-11-15T11:10:49.737Z,59.51
2022-11-15T11:11:50.298Z,59.97
2022-11-15T11:12:52.049Z,60.12
2022-11-15T11:13:54.750Z,60.29
2022-11-15T11:14:56.779Z,59.99
2022-11-15T11:16:39.284Z,59.88
2022-11-15T11:18:16.380Z,60.10
2022-11-15T11:19:56.238Z,59.94
2022-11-15T11:21:12.860Z,59.99
2022-11-15T11:22:41.976Z,60.54
2022-11-15T11:24:00.680Z,60.92
2022-11-15T11:25:15.798Z,60.94
2022-11-15T11:26:57.175Z,60.64
2022-11-15T11:28:23.695Z,60.75
2022-11-15T11:29:39.744Z,60.64
2022-11-15T11:30:56.577Z,60.53
2022-11-15T11:32:27.494Z,59.94
2022-11-15T11:33:47.960Z,59.63
2022-11-15T11:35:04.995Z,59.75
2022-11-15T11:36:36.281Z,59.78
2022-11-15T11:37:48.691Z,59.79
2022-11-15T11:39:12.366Z,59.80
2022-11-15T11:40:44.365Z,59.48
2022-11-15T11:41:59.871Z,58.50
2022-11-15T11:43:18.999Z,58.24
2022-11-15T11:44:30.038Z,58.22
2022-11-15T11:45:37.741Z,57.62
2022-11-15T11:46:50.209Z,57.93
2022-11-15T11:48:27.307Z,58.06
2022-11-15T11:49:40.133Z,58.06
2022-11-15T11:50:46.060Z,57.92
2022-11-15T11:52:01.097Z,57.77
2022-11-15T11:53:20.829Z,57.61
2022-11-15T11:54:47.133Z,57.39
2022-11-15T11:55:54.739Z,57.11
2022-11-15T11:57:01.053Z,57.10
2022-11-15T11:58:14.257Z,57.22
2022-11-15T11:59:54.310Z,56.94
2022-11-15T12:01:18.975Z,56.47
2022-11-15T12:02:40.850Z,56.39
2022-11-15T12:03:52.487Z,56.03
2022-11-15T12:05:08.879Z,55.57
2022-11-15T12:06:34.233Z,55.11
2022-11-15T12:07:40.451Z,55.05
2022-11-15T12:09:13.459Z,54.63
2022-11-15T12:10:21.871Z,54.19
2022-11-15T12:11:52.819Z,54.05
2022-11-15T12:13:17.293Z,54.17
2022-11-15T12:14:27.236Z,53.89
2022-11-15T12:15:38.076Z,53.25
2022-11-15T12:16:43.798Z,53.00
2022-11-15T12:17:47.618Z,52.75
2022-11-15T12:18:53.984Z,52.94
2022-11-15T12:20:02.670Z,52.98
2022-11-15T12:21:15.778Z,53.16
2022-11-15T12:22:29.599Z,52.75
2022-11-15T12:23:47.218Z,52.29
2022-11-15T12:25:15.688Z,52.17
2022-11-15T12:26:27.262Z,52.28
2022-11-15T12:27:41.884Z,52.31
2022-11-15T12:29:07.479Z,52.00
2022-11-15T12:30:20.707Z,52.13
2022-11-15T12:31:34.953Z,52.01
2022-11-15T12:32:39.822Z,51.71
2022-11-15T12:33:45.517Z,51.59
2022-11-15T12:34:51.211Z,51.30
2022-11-15T12:36:02.237Z,50.95
2022-11-15T12:37:33.757Z,51.05
2022-11-15T12:39:11.757Z,50.96
2022-11-15T12:40:27.882Z,50.87
2022-11-15T12:41:32.537Z,50.51
2022-11-15T12:42:42.949Z,50.28
2022-11-15T12:43:47.149Z,50.52
2022-11-15T12:44:48.790Z,50.51
2022-11-15T12:45:50.512Z,50.57
2022-11-15T12:46:52.139Z,50.29
2022-11-15T12:47:54.500Z,49.85
2022-11-15T12:49:14.726Z,49.85
2022-11-15T12:50:16.688Z,49.82
2022-11-15T12:51:22.078Z,49.51
2022-11-15T12:52:23.818Z,49.08
2022-11-15T12:53:25.949Z,48.72
2022-11-15T12:54:30.032Z,48.72
2022-11-15T12:55:33.963Z,48.84
2022-11-15T12:56:35.769Z,48.64
2022-11-15T12:57:43.575Z,48.53
2022-11-15T12:59:03.491Z,48.48
2022-11-15T13:00:15.324Z,48.38
2022-11-15T13:01:32.820Z,48.18
2022-11-15T13:02:46.472Z,48.12
2022-11-15T13:04:33.387Z,47.84
2022-11-15T13:05:35.026Z,48.18
2022-11-15T13:06:47.446Z,48.43
2022-11-15T13:07:49.160Z,48.12
2022-11-15T13:08:51.891Z,47.86
2022-11-15T13:09:57.111Z,47.41
2022-11-15T13:10:58.921Z,47.28
2022-11-15T13:12:19.788Z,46.75
2022-11-15T13:13:45.483Z,46.73
2022-11-15T13:14:52.568Z,46.81
2022-11-15T13:15:59.497Z,47.01
2022-11-15T13:17:01.713Z,47.18
2022-11-15T13:18:41.064Z,47.09
2022-11-15T13:19:44.318Z,46.92
2022-11-15T13:20:46.109Z,47.04
2022-11-15T13:22:09.590Z,47.22
2022-11-15T13:23:16.583Z,47.44
2022-11-15T13:24:18.627Z,47.24
2022-11-15T13:25:38.811Z,47.45
2022-11-15T13:26:41.222Z,47.81
2022-11-15T13:27:43.003Z,48.16
2022-11-15T13:28:52.777Z,48.35
2022-11-15T13:29:54.772Z,48.49
2022-11-15T13:31:00.683Z,48.47
2022-11-15T13:32:02.499Z,48.65
2022-11-15T13:33:30.393Z,48.87
2022-11-15T13:34:51.105Z,48.72
2022-11-15T13:35:59.019Z,48.80
2022-11-15T13:37:01.991Z,48.74
2022-11-15T13:38:06.120Z,48.72
2022-11-15T13:39:28.055Z,48.69
2022-11-15T13:40:36.869Z,48.68
2022-11-15T13:41:49.267Z,48.69
2022-11-15T13:42:51.154Z,48.68
2022-11-15T13:43:55.101Z,48.79
2022-11-15T13:44:59.428Z,48.79
2022-11-15T13:46:21.285Z,48.84
2022-11-15T13:47:28.104Z,49.21
2022-11-15T13:48:31.173Z,49.46
2022-11-15T13:49:35.373Z,49.71
2022-11-15T13:50:40.537Z,49.96
2022-11-15T13:51:51.509Z,50.28
2022-11-15T13:52:58.537Z,50.51
2022-11-15T13:54:10.170Z,50.55
2022-11-15T13:55:18.716Z,50.77
2022-11-15T13:56:22.134Z,50.98
2022-11-15T13:57:28.875Z,51.18
2022-11-15T13:58:31.270Z,51.42
2022-11-15T13:59:54.751Z,51.67
2022-11-15T14:01:05.674Z,52.06
2022-11-15T14:02:20.403Z,52.32
2022-11-15T14:03:28.659Z,52.56
2022-11-15T14:04:34.941Z,52.91
2022-11-15T14:05:36.998Z,53.28
2022-11-15T14:06:48.810Z,53.61
2022-11-15T14:07:58.153Z,54.02
2022-11-15T14:09:01.849Z,54.41
2022-11-15T14:10:39.522Z,54.73
2022-11-15T14:11:52.462Z,55.16
2022-11-15T14:12:54.200Z,55.58
2022-11-15T14:14:14.178Z,55.93
2022-11-15T14:15:37.194Z,56.33
2022-11-15T14:16:40.090Z,56.88
2022-11-15T14:17:45.705Z,57.19
2022-11-15T14:18:54.195Z,57.50
2022-11-15T14:19:57.870Z,57.75
2022-11-15T14:21:09.927Z,58.04
2022-11-15T14:22:17.952Z,58.38
2022-11-15T14:23:25.290Z,58.65
2022-11-15T14:24:32.577Z,58.98
2022-11-15T14:25:37.482Z,59.32
2022-11-15T14:26:39.277Z,59.67
2022-11-15T14:27:42.336Z,59.95
2022-11-15T14:28:44.134Z,60.21
2022-11-15T14:29:45.864Z,60.46
2022-11-15T14:30:51.175Z,60.71
2022-11-15T14:31:54.647Z,60.97
2022-11-15T14:32:56.411Z,61.27
2022-11-15T14:33:58.281Z,61.49
2022-11-15T14:35:02.405Z,61.79
2022-11-15T14:36:21.939Z,62.06
2022-11-15T14:37:30.094Z,62.37
2022-11-15T14:38:32.393Z,63.03
2022-11-15T14:39:34.343Z,63.90
2022-11-15T14:40:36.133Z,63.61
2022-11-15T14:41:40.980Z,62.51
2022-11-15T14:42:45.385Z,60.98
2022-11-15T14:43:47.168Z,59.48
2022-11-15T14:44:49.194Z,57.44
2022-11-15T14:45:51.101Z,55.85
2022-11-15T14:46:52.947Z,55.58
2022-11-15T14:47:55.325Z,55.99
2022-11-15T14:48:57.673Z,56.71
2022-11-15T14:49:59.440Z,57.54
2022-11-15T14:51:01.236Z,58.35
2022-11-15T14:52:03.208Z,59.02
2022-11-15T14:53:06.431Z,59.54
2022-11-15T14:54:11.484Z,59.97
2022-11-15T14:55:20.695Z,60.43
2022-11-15T14:56:22.430Z,60.88
2022-11-15T14:57:24.363Z,61.22
2022-11-15T14:58:26.275Z,61.66
2022-11-15T14:59:28.018Z,62.19
2022-11-15T15:00:35.212Z,62.95
2022-11-15T15:01:37.479Z,64.15
2022-11-15T15:02:40.231Z,64.03
2022-11-15T15:03:42.259Z,62.98
2022-11-15T15:04:44.025Z,61.61
2022-11-15T15:05:45.814Z,60.18
2022-11-15T15:06:47.685Z,58.65
2022-11-15T15:07:50.834Z,56.80
2022-11-15T15:08:52.747Z,56.14
2022-11-15T15:10:02.750Z,56.31
2022-11-15T15:11:20.358Z,57.15
2022-11-15T15:12:24.324Z,58.05
2022-11-15T15:13:26.072Z,58.90
2022-11-15T15:14:28.152Z,59.66
2022-11-15T15:15:38.663Z,60.30
2022-11-15T15:16:40.429Z,60.86
2022-11-15T15:17:42.429Z,61.32
2022-11-15T15:18:44.545Z,61.83
2022-11-15T15:19:46.288Z,62.35
2022-11-15T15:20:57.699Z,63.27
2022-11-15T15:21:59.811Z,64.19
2022-11-15T15:23:01.607Z,63.61
2022-11-15T15:24:04.103Z,62.43
2022-11-15T15:25:21.484Z,61.12
2022-11-15T15:26:24.791Z,59.58
2022-11-15T15:27:26.598Z,57.93
2022-11-15T15:28:34.051Z,56.72
2022-11-15T15:29:36.910Z,56.77
2022-11-15T15:30:38.677Z,57.44
2022-11-15T15:31:40.435Z,58.33
2022-11-15T15:32:42.264Z,59.19
2022-11-15T15:33:44.637Z,59.89
2022-11-15T15:34:46.440Z,60.64
2022-11-15T15:35:48.419Z,61.34
2022-11-15T15:36:50.300Z,61.99
2022-11-15T15:37:52.379Z,62.63
2022-11-15T15:38:54.526Z,63.95
2022-11-15T15:39:58.062Z,64.49
2022-11-15T15:41:02.984Z,63.98
2022-11-15T15:42:05.009Z,62.92
2022-11-15T15:43:09.926Z,61.64
2022-11-15T15:44:11.931Z,60.30
2022-11-15T15:45:14.143Z,59.08
2022-11-15T15:46:18.547Z,57.55
2022-11-15T15:47:24.455Z,57.03
2022-11-15T15:48:26.197Z,57.56
2022-11-15T15:49:27.939Z,58.57
2022-11-15T15:50:33.971Z,59.52
2022-11-15T15:51:35.735Z,60.41
2022-11-15T15:52:37.493Z,61.18
2022-11-15T15:53:40.482Z,61.96
2022-11-15T15:54:42.996Z,62.80
2022-11-15T15:55:44.784Z,64.05
2022-11-15T15:56:46.666Z,64.36
2022-11-15T15:57:49.315Z,63.65
2022-11-15T15:58:53.286Z,62.54
2022-11-15T15:59:55.185Z,61.38
2022-11-15T16:00:57.057Z,60.35
2022-11-15T16:01:59.134Z,59.35
2022-11-15T16:03:01.141Z,57.93
2022-11-15T16:04:03.365Z,57.06
2022-11-15T16:05:05.949Z,57.33
2022-11-15T16:06:33.177Z,58.29
2022-11-15T16:07:35.211Z,59.70
2022-11-15T16:09:00.382Z,60.64
2022-11-15T16:10:02.509Z,61.92
2022-11-15T16:11:07.185Z,63.04
2022-11-15T16:12:09.048Z,64.54
2022-11-15T16:13:10.896Z,64.83
2022-11-15T16:14:12.774Z,64.25
2022-11-15T16:15:15.240Z,63.17
2022-11-15T16:16:22.832Z,61.99
2022-11-15T16:17:33.976Z,60.91
2022-11-15T16:18:36.271Z,59.82
2022-11-15T16:19:38.139Z,58.70
2022-11-15T16:20:50.459Z,57.40
2022-11-15T16:21:53.012Z,57.36
2022-11-15T16:22:54.769Z,58.04
2022-11-15T16:23:56.621Z,59.12
2022-11-15T16:24:58.388Z,59.99
2022-11-15T16:26:00.115Z,61.02
2022-11-15T16:27:02.543Z,62.18
2022-11-15T16:28:04.357Z,63.66
2022-11-15T16:29:07.984Z,64.91
2022-11-15T16:30:15.159Z,65.09
2022-11-15T16:31:19.336Z,64.13
2022-11-15T16:32:21.192Z,63.09
2022-11-15T16:33:23.103Z,62.06
2022-11-15T16:34:30.034Z,61.13
2022-11-15T16:35:32.855Z,60.26
2022-11-15T16:36:36.480Z,59.38
2022-11-15T16:37:40.779Z,58.07
2022-11-15T16:38:42.516Z,57.39
2022-11-15T16:39:44.238Z,57.81
2022-11-15T16:40:46.181Z,58.63
2022-11-15T16:41:47.895Z,59.45
2022-11-15T16:42:49.662Z,60.61
2022-11-15T16:43:51.658Z,61.54
2022-11-15T16:44:53.413Z,62.84
2022-11-15T16:45:55.547Z,64.52
2022-11-15T16:46:57.477Z,65.31
2022-11-15T16:47:59.210Z,65.22
2022-11-15T16:49:01.685Z,64.73
2022-11-15T16:50:03.634Z,63.51
2022-11-15T16:51:05.930Z,62.30
2022-11-15T16:52:07.782Z,61.48
2022-11-15T16:53:09.562Z,60.75
2022-11-15T16:54:11.525Z,60.37
2022-11-15T16:55:13.335Z,59.80
2022-11-15T16:56:23.834Z,59.10
2022-11-15T16:57:25.534Z,57.79
2022-11-15T16:58:27.516Z,57.67
2022-11-15T16:59:35.630Z,58.05
2022-11-15T17:00:39.889Z,59.24
2022-11-15T17:01:52.740Z,60.47
2022-11-15T17:02:56.001Z,61.67
2022-11-15T17:03:58.161Z,63.56
2022-11-15T17:04:59.965Z,65.21
2022-11-15T17:06:01.683Z,65.96
2022-11-15T17:07:03.532Z,65.82
2022-11-15T17:08:06.506Z,64.93
2022-11-15T17:09:15.318Z,63.94
2022-11-15T17:10:17.526Z,62.87
2022-11-15T17:11:22.153Z,62.04
2022-11-15T17:12:23.912Z,61.46
2022-11-15T17:13:25.719Z,60.89
2022-11-15T17:14:27.556Z,60.60
2022-11-15T17:15:29.518Z,60.04